sensor_id;sensor_type;location;lat;lon;timestamp;pressure;altitude;pressure_sealevel;temperature;humidity
44839;BME280;30576;42.098;24.876;2023-01-26T00:01:17;100649.75;;;4.48;67.67
44839;BME280;30576;42.098;24.876;2023-01-26T00:03:43;100649.75;;;4.15;69.22
44839;BME280;30576;42.098;24.876;2023-01-26T00:06:10;100649.47;;;4.04;70.84
44839;BME280;30576;42.098;24.876;2023-01-26T00:08:36;100651.47;;;4.13;70.96
44839;BME280;30576;42.098;24.876;2023-01-26T00:11:03;100643.75;;;4.18;70.90
44839;BME280;30576;42.098;24.876;2023-01-26T00:13:28;100643.19;;;4.29;70.48
44839;BME280;30576;42.098;24.876;2023-01-26T00:15:53;100637.81;;;4.23;70.59
44839;BME280;30576;42.098;24.876;2023-01-26T00:18:19;100620.63;;;4.00;71.13
44839;BME280;30576;42.098;24.876;2023-01-26T00:20:44;100621.22;;;3.88;72.40
44839;BME280;30576;42.098;24.876;2023-01-26T00:23:09;100617.31;;;3.73;72.89
44839;BME280;30576;42.098;24.876;2023-01-26T00:25:36;100609.56;;;3.76;72.86
44839;BME280;30576;42.098;24.876;2023-01-26T00:28:01;100604.94;;;3.65;73.05
44839;BME280;30576;42.098;24.876;2023-01-26T00:30:27;100598.38;;;3.49;73.58
44839;BME280;30576;42.098;24.876;2023-01-26T00:32:52;100603.50;;;3.46;73.96
44839;BME280;30576;42.098;24.876;2023-01-26T00:35:17;100603.06;;;3.61;73.78
44839;BME280;30576;42.098;24.876;2023-01-26T00:37:43;100610.22;;;3.68;73.55
44839;BME280;30576;42.098;24.876;2023-01-26T00:40:09;100606.06;;;3.74;73.20
44839;BME280;30576;42.098;24.876;2023-01-26T00:42:34;100604.66;;;3.87;72.78
44839;BME280;30576;42.098;24.876;2023-01-26T00:45:00;100593.63;;;3.98;71.93
44839;BME280;30576;42.098;24.876;2023-01-26T00:47:25;100594.84;;;4.12;71.10
44839;BME280;30576;42.098;24.876;2023-01-26T00:49:50;100594.72;;;4.07;70.64
44839;BME280;30576;42.098;24.876;2023-01-26T00:52:16;100604.94;;;3.98;71.25
44839;BME280;30576;42.098;24.876;2023-01-26T00:54:41;100602.44;;;4.03;71.73
44839;BME280;30576;42.098;24.876;2023-01-26T00:57:06;100573.69;;;4.01;71.03
44839;BME280;30576;42.098;24.876;2023-01-26T00:59:32;100596.50;;;4.08;71.27
44839;BME280;30576;42.098;24.876;2023-01-26T01:01:58;100578.31;;;4.11;71.12
44839;BME280;30576;42.098;24.876;2023-01-26T01:04:23;100586.88;;;4.07;71.34
44839;BME280;30576;42.098;24.876;2023-01-26T01:06:49;100578.53;;;4.21;71.06
44839;BME280;30576;42.098;24.876;2023-01-26T01:09:14;100584.28;;;4.07;71.22
44839;BME280;30576;42.098;24.876;2023-01-26T01:11:39;100581.00;;;4.15;70.85
44839;BME280;30576;42.098;24.876;2023-01-26T01:14:05;100575.84;;;4.18;70.91
44839;BME280;30576;42.098;24.876;2023-01-26T01:16:30;100572.44;;;4.20;71.06
44839;BME280;30576;42.098;24.876;2023-01-26T01:18:55;100577.84;;;4.28;70.84
44839;BME280;30576;42.098;24.876;2023-01-26T01:21:21;100566.16;;;4.13;70.91
44839;BME280;30576;42.098;24.876;2023-01-26T01:23:47;100575.09;;;4.22;71.26
44839;BME280;30576;42.098;24.876;2023-01-26T01:26:12;100571.22;;;4.07;71.14
44839;BME280;30576;42.098;24.876;2023-01-26T01:28:38;100566.22;;;4.17;70.90
44839;BME280;30576;42.098;24.876;2023-01-26T01:31:04;100560.66;;;4.03;71.18
44839;BME280;30576;42.098;24.876;2023-01-26T01:33:30;100553.69;;;4.02;71.42
44839;BME280;30576;42.098;24.876;2023-01-26T01:35:59;100554.00;;;4.14;71.15
44839;BME280;30576;42.098;24.876;2023-01-26T01:38:25;100562.72;;;4.15;71.19
44839;BME280;30576;42.098;24.876;2023-01-26T01:40:50;100556.88;;;3.90;71.17
44839;BME280;30576;42.098;24.876;2023-01-26T01:43:16;100561.09;;;3.85;71.57
44839;BME280;30576;42.098;24.876;2023-01-26T01:45:43;100552.06;;;3.73;72.18
44839;BME280;30576;42.098;24.876;2023-01-26T01:48:11;100549.59;;;3.78;72.25
44839;BME280;30576;42.098;24.876;2023-01-26T01:50:38;100545.31;;;3.80;72.02
44839;BME280;30576;42.098;24.876;2023-01-26T01:53:04;100546.09;;;3.78;71.72
44839;BME280;30576;42.098;24.876;2023-01-26T01:55:31;100544.56;;;3.86;71.58
44839;BME280;30576;42.098;24.876;2023-01-26T01:57:58;100531.81;;;3.98;70.82
44839;BME280;30576;42.098;24.876;2023-01-26T02:00:25;100531.88;;;4.00;70.12
44839;BME280;30576;42.098;24.876;2023-01-26T02:02:53;100527.31;;;3.91;70.32
44839;BME280;30576;42.098;24.876;2023-01-26T02:06:10;100525.06;;;3.71;70.85
44839;BME280;30576;42.098;24.876;2023-01-26T02:08:38;100519.50;;;3.91;70.88
44839;BME280;30576;42.098;24.876;2023-01-26T02:11:08;100524.50;;;3.83;70.73
44839;BME280;30576;42.098;24.876;2023-01-26T02:13:34;100520.88;;;3.78;71.16
44839;BME280;30576;42.098;24.876;2023-01-26T02:16:00;100533.78;;;3.72;71.77
44839;BME280;30576;42.098;24.876;2023-01-26T02:18:26;100520.16;;;3.50;72.67
44839;BME280;30576;42.098;24.876;2023-01-26T02:20:52;100520.13;;;3.49;73.61
44839;BME280;30576;42.098;24.876;2023-01-26T02:28:36;100514.72;;;3.74;73.48
44839;BME280;30576;42.098;24.876;2023-01-26T02:31:03;100521.38;;;3.63;74.08
44839;BME280;30576;42.098;24.876;2023-01-26T02:33:29;100512.50;;;3.56;74.96
44839;BME280;30576;42.098;24.876;2023-01-26T02:35:56;100518.03;;;3.69;74.50
44839;BME280;30576;42.098;24.876;2023-01-26T02:38:22;100508.50;;;3.69;74.42
44839;BME280;30576;42.098;24.876;2023-01-26T02:43:15;100499.13;;;3.78;74.97
44839;BME280;30576;42.098;24.876;2023-01-26T02:45:41;100494.09;;;3.85;74.39
44839;BME280;30576;42.098;24.876;2023-01-26T02:48:07;100494.13;;;3.87;74.50
44839;BME280;30576;42.098;24.876;2023-01-26T02:50:32;100488.81;;;3.82;74.92
44839;BME280;30576;42.098;24.876;2023-01-26T02:52:58;100487.28;;;3.92;75.12
44839;BME280;30576;42.098;24.876;2023-01-26T02:55:24;100484.75;;;3.95;74.78
44839;BME280;30576;42.098;24.876;2023-01-26T02:57:51;100483.94;;;3.96;74.83
44839;BME280;30576;42.098;24.876;2023-01-26T03:02:48;100487.41;;;3.97;74.16
44839;BME280;30576;42.098;24.876;2023-01-26T03:05:15;100482.94;;;3.91;74.44
44839;BME280;30576;42.098;24.876;2023-01-26T03:07:40;100482.47;;;4.09;74.29
44839;BME280;30576;42.098;24.876;2023-01-26T03:10:06;100485.09;;;4.09;73.94
44839;BME280;30576;42.098;24.876;2023-01-26T03:12:31;100484.97;;;4.04;73.89
44839;BME280;30576;42.098;24.876;2023-01-26T03:14:56;100484.84;;;3.98;73.58
44839;BME280;30576;42.098;24.876;2023-01-26T03:17:40;100476.06;;;3.94;73.85
44839;BME280;30576;42.098;24.876;2023-01-26T03:20:06;100467.66;;;4.06;73.67
44839;BME280;30576;42.098;24.876;2023-01-26T03:22:50;100466.66;;;4.03;73.93
44839;BME280;30576;42.098;24.876;2023-01-26T03:25:35;100453.91;;;4.15;73.56
44839;BME280;30576;42.098;24.876;2023-01-26T03:28:19;100458.13;;;4.08;73.47
44839;BME280;30576;42.098;24.876;2023-01-26T03:30:50;100466.75;;;4.06;73.33
44839;BME280;30576;42.098;24.876;2023-01-26T03:33:16;100461.41;;;4.01;73.13
44839;BME280;30576;42.098;24.876;2023-01-26T03:35:41;100456.13;;;3.98;72.77
44839;BME280;30576;42.098;24.876;2023-01-26T03:38:08;100447.16;;;3.87;73.28
44839;BME280;30576;42.098;24.876;2023-01-26T03:40:34;100438.06;;;4.07;72.99
44839;BME280;30576;42.098;24.876;2023-01-26T03:43:18;100431.03;;;4.03;72.86
44839;BME280;30576;42.098;24.876;2023-01-26T03:46:02;100428.38;;;4.02;72.45
44839;BME280;30576;42.098;24.876;2023-01-26T03:48:46;100427.22;;;3.90;72.78
44839;BME280;30576;42.098;24.876;2023-01-26T03:51:30;100430.00;;;3.98;72.51
44839;BME280;30576;42.098;24.876;2023-01-26T03:54:14;100416.38;;;4.10;72.59
44839;BME280;30576;42.098;24.876;2023-01-26T03:56:58;100420.69;;;4.08;72.20
44839;BME280;30576;42.098;24.876;2023-01-26T03:59:23;100422.97;;;3.94;72.59
44839;BME280;30576;42.098;24.876;2023-01-26T04:02:02;100409.91;;;3.94;72.44
44839;BME280;30576;42.098;24.876;2023-01-26T04:04:46;100402.78;;;3.87;72.70
44839;BME280;30576;42.098;24.876;2023-01-26T04:07:30;100401.00;;;3.86;73.03
44839;BME280;30576;42.098;24.876;2023-01-26T04:10:14;100399.19;;;3.82;73.01
44839;BME280;30576;42.098;24.876;2023-01-26T04:12:40;100401.84;;;3.83;72.87
44839;BME280;30576;42.098;24.876;2023-01-26T04:15:05;100401.91;;;3.86;72.74
44839;BME280;30576;42.098;24.876;2023-01-26T04:17:49;100400.41;;;3.98;72.71
44839;BME280;30576;42.098;24.876;2023-01-26T04:20:33;100398.97;;;3.72;73.20
44839;BME280;30576;42.098;24.876;2023-01-26T04:23:17;100392.16;;;3.79;72.78
44839;BME280;30576;42.098;24.876;2023-01-26T04:25:43;100394.91;;;3.85;72.62
44839;BME280;30576;42.098;24.876;2023-01-26T04:28:08;100398.44;;;3.87;72.67
44839;BME280;30576;42.098;24.876;2023-01-26T04:30:33;100392.38;;;3.88;72.01
44839;BME280;30576;42.098;24.876;2023-01-26T04:32:59;100388.16;;;3.95;71.94
44839;BME280;30576;42.098;24.876;2023-01-26T04:35:24;100389.97;;;3.98;72.25
44839;BME280;30576;42.098;24.876;2023-01-26T04:37:50;100382.13;;;3.96;71.81
44839;BME280;30576;42.098;24.876;2023-01-26T04:43:20;100380.53;;;4.04;71.35
44839;BME280;30576;42.098;24.876;2023-01-26T04:48:32;100377.94;;;4.04;71.21
44839;BME280;30576;42.098;24.876;2023-01-26T04:50:59;100384.13;;;4.08;71.38
44839;BME280;30576;42.098;24.876;2023-01-26T04:53:25;100384.25;;;4.14;70.93
44839;BME280;30576;42.098;24.876;2023-01-26T04:55:51;100381.63;;;4.12;71.21
44839;BME280;30576;42.098;24.876;2023-01-26T04:58:16;100389.28;;;4.05;71.98
44839;BME280;30576;42.098;24.876;2023-01-26T05:00:42;100378.88;;;4.06;71.76
44839;BME280;30576;42.098;24.876;2023-01-26T05:03:07;100382.19;;;3.99;71.82
44839;BME280;30576;42.098;24.876;2023-01-26T05:05:35;100386.88;;;4.14;71.02
44839;BME280;30576;42.098;24.876;2023-01-26T05:08:02;100377.00;;;4.01;71.87
44839;BME280;30576;42.098;24.876;2023-01-26T05:10:27;100379.50;;;3.96;72.21
44839;BME280;30576;42.098;24.876;2023-01-26T05:12:55;100381.50;;;4.08;71.62
44839;BME280;30576;42.098;24.876;2023-01-26T05:15:24;100379.47;;;3.94;71.84
44839;BME280;30576;42.098;24.876;2023-01-26T05:21:09;100373.38;;;3.94;72.02
44839;BME280;30576;42.098;24.876;2023-01-26T05:23:35;100371.97;;;4.10;71.65
44839;BME280;30576;42.098;24.876;2023-01-26T05:26:09;100370.88;;;3.99;71.56
44839;BME280;30576;42.098;24.876;2023-01-26T05:28:34;100363.00;;;3.97;71.47
44839;BME280;30576;42.098;24.876;2023-01-26T05:30:59;100364.81;;;4.01;71.17
44839;BME280;30576;42.098;24.876;2023-01-26T05:33:25;100355.91;;;3.91;71.07
44839;BME280;30576;42.098;24.876;2023-01-26T05:35:50;100361.78;;;3.83;71.27
44839;BME280;30576;42.098;24.876;2023-01-26T05:38:19;100351.34;;;3.83;71.47
44839;BME280;30576;42.098;24.876;2023-01-26T05:40:44;100349.66;;;3.47;72.46
44839;BME280;30576;42.098;24.876;2023-01-26T05:43:10;100353.13;;;3.47;72.72
44839;BME280;30576;42.098;24.876;2023-01-26T05:45:36;100356.66;;;3.49;72.94
44839;BME280;30576;42.098;24.876;2023-01-26T05:48:02;100352.94;;;3.39;73.41
44839;BME280;30576;42.098;24.876;2023-01-26T05:50:27;100356.22;;;3.31;73.80
44839;BME280;30576;42.098;24.876;2023-01-26T05:52:52;100352.28;;;3.13;73.80
44839;BME280;30576;42.098;24.876;2023-01-26T05:55:18;100350.78;;;3.21;74.07
44839;BME280;30576;42.098;24.876;2023-01-26T05:57:43;100347.84;;;3.44;73.21
44839;BME280;30576;42.098;24.876;2023-01-26T06:00:09;100344.28;;;3.40;72.79
44839;BME280;30576;42.098;24.876;2023-01-26T06:02:35;100346.38;;;3.20;74.07
44839;BME280;30576;42.098;24.876;2023-01-26T06:05:00;100340.34;;;3.21;74.31
44839;BME280;30576;42.098;24.876;2023-01-26T06:07:25;100345.13;;;3.04;75.11
44839;BME280;30576;42.098;24.876;2023-01-26T06:09:51;100336.53;;;3.09;75.37
44839;BME280;30576;42.098;24.876;2023-01-26T06:12:17;100337.97;;;2.97;75.46
44839;BME280;30576;42.098;24.876;2023-01-26T06:14:44;100327.66;;;3.02;75.64
44839;BME280;30576;42.098;24.876;2023-01-26T06:17:09;100332.09;;;3.04;76.14
44839;BME280;30576;42.098;24.876;2023-01-26T06:19:35;100333.09;;;3.10;76.03
44839;BME280;30576;42.098;24.876;2023-01-26T06:22:01;100336.59;;;3.12;75.34
44839;BME280;30576;42.098;24.876;2023-01-26T06:24:27;100339.28;;;3.15;75.45
44839;BME280;30576;42.098;24.876;2023-01-26T06:26:52;100337.66;;;3.18;75.52
44839;BME280;30576;42.098;24.876;2023-01-26T06:29:18;100338.56;;;3.20;74.85
44839;BME280;30576;42.098;24.876;2023-01-26T06:31:44;100338.59;;;3.22;74.76
44839;BME280;30576;42.098;24.876;2023-01-26T06:34:09;100340.59;;;3.32;74.66
44839;BME280;30576;42.098;24.876;2023-01-26T06:36:35;100343.47;;;3.43;74.56
44839;BME280;30576;42.098;24.876;2023-01-26T06:39:00;100340.97;;;3.48;74.24
44839;BME280;30576;42.098;24.876;2023-01-26T06:41:26;100335.97;;;3.57;73.62
44839;BME280;30576;42.098;24.876;2023-01-26T06:43:51;100337.72;;;3.21;72.89
44839;BME280;30576;42.098;24.876;2023-01-26T06:46:17;100329.88;;;3.20;72.79
44839;BME280;30576;42.098;24.876;2023-01-26T06:48:43;100327.88;;;3.10;72.96
44839;BME280;30576;42.098;24.876;2023-01-26T06:53:41;100319.41;;;3.18;73.45
44839;BME280;30576;42.098;24.876;2023-01-26T06:56:07;100313.84;;;3.04;74.64
44839;BME280;30576;42.098;24.876;2023-01-26T06:58:32;100318.03;;;2.99;73.24
44839;BME280;30576;42.098;24.876;2023-01-26T07:00:58;100316.28;;;2.98;72.21
44839;BME280;30576;42.098;24.876;2023-01-26T07:03:24;100312.03;;;3.02;72.62
44839;BME280;30576;42.098;24.876;2023-01-26T07:05:49;100318.34;;;3.12;72.88
44839;BME280;30576;42.098;24.876;2023-01-26T07:08:14;100310.38;;;3.05;72.71
44839;BME280;30576;42.098;24.876;2023-01-26T07:10:40;100304.94;;;3.31;72.62
44839;BME280;30576;42.098;24.876;2023-01-26T07:13:05;100300.47;;;3.27;73.22
44839;BME280;30576;42.098;24.876;2023-01-26T07:15:31;100294.06;;;3.13;73.61
44839;BME280;30576;42.098;24.876;2023-01-26T07:17:56;100297.03;;;2.93;73.87
44839;BME280;30576;42.098;24.876;2023-01-26T07:20:22;100295.97;;;3.20;74.74
44839;BME280;30576;42.098;24.876;2023-01-26T07:22:47;100288.00;;;3.14;73.97
44839;BME280;30576;42.098;24.876;2023-01-26T07:25:14;100290.41;;;3.43;73.98
44839;BME280;30576;42.098;24.876;2023-01-26T07:27:39;100282.50;;;3.39;74.01
44839;BME280;30576;42.098;24.876;2023-01-26T07:30:05;100289.31;;;3.33;74.59
44839;BME280;30576;42.098;24.876;2023-01-26T07:32:30;100281.66;;;3.39;74.50
44839;BME280;30576;42.098;24.876;2023-01-26T07:34:56;100284.06;;;3.31;75.68
44839;BME280;30576;42.098;24.876;2023-01-26T07:37:21;100284.56;;;3.16;75.54
44839;BME280;30576;42.098;24.876;2023-01-26T07:39:46;100278.06;;;2.99;75.94
44839;BME280;30576;42.098;24.876;2023-01-26T07:42:13;100277.81;;;2.56;76.88
44839;BME280;30576;42.098;24.876;2023-01-26T07:44:38;100280.63;;;2.64;78.57
44839;BME280;30576;42.098;24.876;2023-01-26T07:47:04;100287.16;;;2.80;78.40
44839;BME280;30576;42.098;24.876;2023-01-26T07:49:29;100281.81;;;3.10;78.67
44839;BME280;30576;42.098;24.876;2023-01-26T07:51:55;100283.31;;;3.35;79.35
44839;BME280;30576;42.098;24.876;2023-01-26T07:54:21;100277.44;;;3.08;79.55
44839;BME280;30576;42.098;24.876;2023-01-26T07:56:49;100271.84;;;2.92;80.91
44839;BME280;30576;42.098;24.876;2023-01-26T07:59:15;100273.34;;;2.84;81.63
44839;BME280;30576;42.098;24.876;2023-01-26T08:01:40;100279.69;;;2.94;81.30
44839;BME280;30576;42.098;24.876;2023-01-26T08:04:05;100276.56;;;2.74;82.05
44839;BME280;30576;42.098;24.876;2023-01-26T08:06:31;100275.06;;;2.83;81.79
44839;BME280;30576;42.098;24.876;2023-01-26T08:08:56;100277.88;;;2.91;82.22
44839;BME280;30576;42.098;24.876;2023-01-26T08:11:22;100277.00;;;2.91;82.12
44839;BME280;30576;42.098;24.876;2023-01-26T08:13:49;100278.09;;;3.00;81.75
44839;BME280;30576;42.098;24.876;2023-01-26T08:16:15;100282.78;;;2.79;82.51
44839;BME280;30576;42.098;24.876;2023-01-26T08:18:41;100282.41;;;2.65;83.12
44839;BME280;30576;42.098;24.876;2023-01-26T08:21:07;100280.72;;;2.67;83.67
44839;BME280;30576;42.098;24.876;2023-01-26T08:23:32;100275.63;;;2.72;83.95
44839;BME280;30576;42.098;24.876;2023-01-26T08:26:01;100262.38;;;2.62;84.43
44839;BME280;30576;42.098;24.876;2023-01-26T08:28:27;100271.88;;;2.60;84.58
44839;BME280;30576;42.098;24.876;2023-01-26T08:30:52;100265.13;;;2.68;84.55
44839;BME280;30576;42.098;24.876;2023-01-26T08:33:17;100265.06;;;2.65;84.86
44839;BME280;30576;42.098;24.876;2023-01-26T08:35:43;100260.25;;;2.47;85.37
44839;BME280;30576;42.098;24.876;2023-01-26T08:38:08;100252.94;;;2.66;86.70
44839;BME280;30576;42.098;24.876;2023-01-26T08:40:33;100257.50;;;2.76;86.15
44839;BME280;30576;42.098;24.876;2023-01-26T08:42:59;100263.31;;;2.64;86.54
44839;BME280;30576;42.098;24.876;2023-01-26T08:45:25;100251.63;;;2.83;85.66
44839;BME280;30576;42.098;24.876;2023-01-26T08:47:50;100247.75;;;2.67;85.04
44839;BME280;30576;42.098;24.876;2023-01-26T08:50:16;100241.97;;;2.46;86.19
44839;BME280;30576;42.098;24.876;2023-01-26T08:52:41;100242.91;;;2.81;86.13
44839;BME280;30576;42.098;24.876;2023-01-26T08:55:06;100235.63;;;2.69;85.69
44839;BME280;30576;42.098;24.876;2023-01-26T08:57:32;100234.22;;;2.82;86.41
44839;BME280;30576;42.098;24.876;2023-01-26T08:59:57;100232.31;;;2.75;85.47
44839;BME280;30576;42.098;24.876;2023-01-26T09:02:23;100226.28;;;2.78;85.57
44839;BME280;30576;42.098;24.876;2023-01-26T09:04:48;100236.78;;;2.81;86.52
44839;BME280;30576;42.098;24.876;2023-01-26T09:07:13;100228.22;;;2.85;85.71
44839;BME280;30576;42.098;24.876;2023-01-26T09:09:39;100229.69;;;2.74;85.43
44839;BME280;30576;42.098;24.876;2023-01-26T09:12:04;100234.06;;;2.76;86.96
44839;BME280;30576;42.098;24.876;2023-01-26T09:14:29;100230.22;;;2.95;85.70
44839;BME280;30576;42.098;24.876;2023-01-26T09:16:55;100226.44;;;2.84;86.40
44839;BME280;30576;42.098;24.876;2023-01-26T09:19:20;100221.03;;;3.11;85.79
44839;BME280;30576;42.098;24.876;2023-01-26T09:21:45;100213.41;;;3.20;85.18
44839;BME280;30576;42.098;24.876;2023-01-26T09:24:11;100214.69;;;3.00;85.34
44839;BME280;30576;42.098;24.876;2023-01-26T09:26:36;100209.97;;;3.21;85.49
44839;BME280;30576;42.098;24.876;2023-01-26T09:29:01;100205.81;;;3.30;85.22
44839;BME280;30576;42.098;24.876;2023-01-26T09:31:27;100201.72;;;3.43;84.85
44839;BME280;30576;42.098;24.876;2023-01-26T09:33:53;100196.06;;;3.62;84.26
44839;BME280;30576;42.098;24.876;2023-01-26T09:36:18;100189.84;;;3.55;83.83
44839;BME280;30576;42.098;24.876;2023-01-26T09:38:44;100182.38;;;3.31;84.29
44839;BME280;30576;42.098;24.876;2023-01-26T09:57:01;100153.09;;;3.45;82.61
44839;BME280;30576;42.098;24.876;2023-01-26T09:59:31;100141.03;;;3.50;83.18
44839;BME280;30576;42.098;24.876;2023-01-26T10:04:55;100126.41;;;3.58;82.99
44839;BME280;30576;42.098;24.876;2023-01-26T10:07:21;100130.44;;;3.85;82.06
44839;BME280;30576;42.098;24.876;2023-01-26T10:09:47;100119.81;;;3.75;82.12
44839;BME280;30576;42.098;24.876;2023-01-26T10:12:15;100115.16;;;3.61;82.40
44839;BME280;30576;42.098;24.876;2023-01-26T10:14:46;100112.59;;;3.62;82.54
44839;BME280;30576;42.098;24.876;2023-01-26T10:17:15;100108.72;;;3.87;81.99
44839;BME280;30576;42.098;24.876;2023-01-26T10:19:46;100108.94;;;4.00;81.79
44839;BME280;30576;42.098;24.876;2023-01-26T10:22:15;100111.06;;;4.21;81.38
44839;BME280;30576;42.098;24.876;2023-01-26T10:24:42;100103.34;;;4.27;80.89
44839;BME280;30576;42.098;24.876;2023-01-26T10:27:10;100107.00;;;4.38;80.09
44839;BME280;30576;42.098;24.876;2023-01-26T10:29:37;100104.97;;;4.20;80.00
44839;BME280;30576;42.098;24.876;2023-01-26T10:32:03;100098.78;;;4.17;79.67
44839;BME280;30576;42.098;24.876;2023-01-26T10:34:28;100088.19;;;4.07;80.10
44839;BME280;30576;42.098;24.876;2023-01-26T10:37:27;100080.31;;;4.06;79.96
44839;BME280;30576;42.098;24.876;2023-01-26T10:39:58;100068.41;;;4.20;80.41
44839;BME280;30576;42.098;24.876;2023-01-26T10:42:28;100066.03;;;4.36;79.92
44839;BME280;30576;42.098;24.876;2023-01-26T10:44:54;100060.97;;;4.45;79.56
44839;BME280;30576;42.098;24.876;2023-01-26T10:47:19;100054.06;;;4.48;79.12
44839;BME280;30576;42.098;24.876;2023-01-26T10:49:49;100043.13;;;4.76;78.48
44839;BME280;30576;42.098;24.876;2023-01-26T10:52:19;100043.31;;;4.88;77.88
44839;BME280;30576;42.098;24.876;2023-01-26T10:57:36;100037.06;;;4.78;78.43
44839;BME280;30576;42.098;24.876;2023-01-26T11:00:06;100031.09;;;4.87;78.34
44839;BME280;30576;42.098;24.876;2023-01-26T11:02:32;100043.25;;;4.83;77.97
44839;BME280;30576;42.098;24.876;2023-01-26T11:07:37;100031.94;;;4.88;77.61
44839;BME280;30576;42.098;24.876;2023-01-26T11:10:38;100030.81;;;4.67;77.63
44839;BME280;30576;42.098;24.876;2023-01-26T11:13:30;100023.09;;;4.76;77.70
44839;BME280;30576;42.098;24.876;2023-01-26T11:15:49;100014.09;;;4.56;77.65
44839;BME280;30576;42.098;24.876;2023-01-26T11:20:53;100010.47;;;4.47;78.52
44839;BME280;30576;42.098;24.876;2023-01-26T11:33:32;99970.75;;;4.70;79.40
44839;BME280;30576;42.098;24.876;2023-01-26T11:38:44;99962.16;;;4.80;78.72
44839;BME280;30576;42.098;24.876;2023-01-26T11:41:19;99946.56;;;4.87;77.74
44839;BME280;30576;42.098;24.876;2023-01-26T11:44:02;99943.84;;;4.77;77.82
44839;BME280;30576;42.098;24.876;2023-01-26T11:52:03;99921.03;;;4.65;78.38
44839;BME280;30576;42.098;24.876;2023-01-26T12:04:24;99915.81;;;4.67;79.21
44839;BME280;30576;42.098;24.876;2023-01-26T12:07:02;99908.53;;;4.43;79.90
44839;BME280;30576;42.098;24.876;2023-01-26T12:10:32;99909.97;;;4.19;79.61
44839;BME280;30576;42.098;24.876;2023-01-26T12:12:34;99903.81;;;4.16;81.48
44839;BME280;30576;42.098;24.876;2023-01-26T12:22:53;99899.47;;;4.16;81.94
44839;BME280;30576;42.098;24.876;2023-01-26T12:27:58;99896.91;;;4.19;81.78
44839;BME280;30576;42.098;24.876;2023-01-26T12:32:52;99895.84;;;4.05;81.90
44839;BME280;30576;42.098;24.876;2023-01-26T12:35:31;99889.06;;;4.19;81.96
44839;BME280;30576;42.098;24.876;2023-01-26T12:38:02;99882.28;;;4.34;81.57
44839;BME280;30576;42.098;24.876;2023-01-26T12:40:41;99879.84;;;4.47;80.95
44839;BME280;30576;42.098;24.876;2023-01-26T12:46:00;99893.94;;;3.94;83.13
44839;BME280;30576;42.098;24.876;2023-01-26T12:48:36;99891.06;;;3.78;83.09
44839;BME280;30576;42.098;24.876;2023-01-26T12:51:11;99884.19;;;3.84;83.22
44839;BME280;30576;42.098;24.876;2023-01-26T12:56:24;99885.28;;;3.97;83.54
44839;BME280;30576;42.098;24.876;2023-01-26T12:58:53;99884.22;;;3.86;83.91
44839;BME280;30576;42.098;24.876;2023-01-26T13:01:21;99870.69;;;3.55;84.40
44839;BME280;30576;42.098;24.876;2023-01-26T13:03:51;99873.88;;;3.35;85.32
44839;BME280;30576;42.098;24.876;2023-01-26T13:06:19;99873.91;;;3.37;86.50
44839;BME280;30576;42.098;24.876;2023-01-26T13:08:50;99868.38;;;3.73;85.75
44839;BME280;30576;42.098;24.876;2023-01-26T13:16:53;99851.91;;;3.76;85.18
44839;BME280;30576;42.098;24.876;2023-01-26T13:22:02;99850.34;;;3.32;86.97
44839;BME280;30576;42.098;24.876;2023-01-26T13:26:56;99845.25;;;3.38;86.70
44839;BME280;30576;42.098;24.876;2023-01-26T13:29:26;99843.72;;;3.53;87.10
44839;BME280;30576;42.098;24.876;2023-01-26T13:34:42;99826.50;;;3.66;85.87
44839;BME280;30576;42.098;24.876;2023-01-26T13:37:10;99829.25;;;3.75;85.77
44839;BME280;30576;42.098;24.876;2023-01-26T13:39:40;99817.44;;;3.99;84.50
44839;BME280;30576;42.098;24.876;2023-01-26T13:42:15;99822.34;;;3.77;84.92
44839;BME280;30576;42.098;24.876;2023-01-26T13:44:45;99817.88;;;3.68;85.15
44839;BME280;30576;42.098;24.876;2023-01-26T13:47:23;99803.19;;;3.76;84.68
44839;BME280;30576;42.098;24.876;2023-01-26T13:49:51;99806.50;;;3.63;84.58
44839;BME280;30576;42.098;24.876;2023-01-26T13:52:23;99792.50;;;3.59;84.48
44839;BME280;30576;42.098;24.876;2023-01-26T13:54:53;99788.38;;;3.72;84.71
44839;BME280;30576;42.098;24.876;2023-01-26T13:57:19;99784.09;;;3.78;84.39
44839;BME280;30576;42.098;24.876;2023-01-26T13:59:54;99778.91;;;3.81;83.97
44839;BME280;30576;42.098;24.876;2023-01-26T14:02:21;99780.03;;;4.01;83.32
44839;BME280;30576;42.098;24.876;2023-01-26T14:04:51;99776.91;;;4.30;82.87
44839;BME280;30576;42.098;24.876;2023-01-26T14:07:17;99767.22;;;4.21;82.24
44839;BME280;30576;42.098;24.876;2023-01-26T14:09:52;99760.34;;;4.25;82.71
44839;BME280;30576;42.098;24.876;2023-01-26T14:12:22;99757.88;;;4.39;81.92
44839;BME280;30576;42.098;24.876;2023-01-26T14:14:50;99750.63;;;4.15;81.37
44839;BME280;30576;42.098;24.876;2023-01-26T14:17:35;99741.13;;;4.21;81.79
44839;BME280;30576;42.098;24.876;2023-01-26T14:20:01;99741.91;;;4.12;81.92
44839;BME280;30576;42.098;24.876;2023-01-26T14:22:29;99735.94;;;4.24;81.50
44839;BME280;30576;42.098;24.876;2023-01-26T14:24:55;99726.28;;;4.16;81.61
44839;BME280;30576;42.098;24.876;2023-01-26T14:27:34;99721.16;;;4.25;81.78
44839;BME280;30576;42.098;24.876;2023-01-26T14:30:01;99700.38;;;4.34;81.40
44839;BME280;30576;42.098;24.876;2023-01-26T14:32:28;99695.97;;;4.32;81.28
44839;BME280;30576;42.098;24.876;2023-01-26T14:34:56;99695.22;;;4.43;81.12
44839;BME280;30576;42.098;24.876;2023-01-26T14:37:22;99704.03;;;4.53;80.37
44839;BME280;30576;42.098;24.876;2023-01-26T14:39:48;99711.84;;;4.50;79.81
44839;BME280;30576;42.098;24.876;2023-01-26T14:42:14;99690.94;;;4.52;80.69
44839;BME280;30576;42.098;24.876;2023-01-26T14:44:40;99695.44;;;4.66;80.02
44839;BME280;30576;42.098;24.876;2023-01-26T14:47:08;99692.59;;;4.40;80.17